Main page
METAR-TAF:

METAR-TAF

Airports :

Nouakchott, Mauritania

Nouakchott–Oumtounsy International Airport

latitude: 18-18-36N, longitude: 015-58-11W, elevation: 3 m

Current weather observation

The report was made 36 minutes ago, at 22:00 UTC
Wind 16 kt from the North/Northwest
Temperature 23°C
Humidity 73%
Pressure 1013 hPa
Visibility: 8000 m

METAR: GQNO 272200Z 34016KT 8000 NSC 23/18 Q1013 NOSIG

Time: 22:36 (22:36 UTC)

Forecast

The report was made 5 hours and 36 minutes ago, at 17:00 UTC
Forecast valid from 27 at 18 UTC to 28 at 24 UTC
Wind 14 kt from the North/Northwest with gusts up to 28 kt
Visibility: 7000 m

TAF: GQNO 271700Z 2718/2824 34014G28KT 7000 NSC

Weather observations and forecasts of more than 4000 airports (METAR and TAF reports).

The available stations are represented by yellow and red dots on the map.

Hover mouse over dot to see the name of the station.

Then click to see weather observations and forecasts.

To change the map : click on the green buttons with a black cross to zoom in, on the green button with a dash to zoom out, or on the green arrows for adjacent maps.


METAR-TAF: